Igarape Grande, Brazil
Current Conditions -  °F | °C
As of 6:00 PM on Tuesday 27 Jan 2015 (Local Time) from SBTE Reporting Station
Clear Clear  
Wind Chill: 93°   Ceiling: Unl
Heat Index: 95°   Visibility: 6mi
Dew Point: 64°   Wind: 6mph
Humidity: 38%   Direction: 270°W
Pressure: 29.77"   Gusts: NA
Location:  4.57°S, 44.82°W
Report Text: SBTE 272100Z 27005KT CAVOK 34/18 Q1008
Loading
Personal Weather Stations






























Interactive Weather Map New forecast layout! Learn more

10-Day Weather Forecast

Advertisements
Track Severe Weather on mobile